Time;durP1;ratioP1;P1;durP2;ratioP2;P2;SDS_P1;SDS_P2;PMS_P1;PMS_P2;Temp;Humidity;BMP_temperature;BMP_pressure;BME280_temperature;BME280_humidity;BME280_pressure;Samples;Min_cycle;Max_cycle;Signal;HPM_P1;HPM_P2
2023/08/06 00:00:05;;;;;;;3.38;2.33;;;512.70;2380.80;;;;;;5085898;28;20540;-72
2023/08/06 00:02:31;;;;;;;4.88;2.78;;;512.70;2380.80;;;;;;5067677;28;20085;-72
2023/08/06 00:04:57;;;;;;;3.83;3.13;;;512.90;2380.80;;;;;;5079491;28;20432;-72
2023/08/06 00:07:23;;;;;;;5.97;3.17;;;512.90;2380.80;;;;;;5084333;28;20067;-71
2023/08/06 00:09:48;;;;;;;4.78;2.50;;;512.90;2380.80;;;;;;5079731;28;20059;-73
2023/08/06 00:12:14;;;;;;;5.38;2.50;;;537.60;2406.40;;;;;;5080366;28;20043;-74
2023/08/06 00:14:39;;;;;;;3.70;2.38;;;537.80;2406.40;;;;;;5081572;28;20381;-72
2023/08/06 00:17:05;;;;;;;8.30;2.65;;;537.80;2406.40;;;;;;5085509;28;20037;-72
2023/08/06 00:19:32;;;;;;;4.85;2.22;;;537.60;2406.40;;;;;;5078650;28;20028;-72
2023/08/06 00:21:57;;;;;;;3.38;2.30;;;512.90;2380.80;;;;;;5064916;28;20033;-72
2023/08/06 00:24:23;;;;;;;4.78;2.70;;;512.70;2380.80;;;;;;5085594;28;20029;-72
2023/08/06 00:26:49;;;;;;;3.53;2.30;;;512.60;2380.80;;;;;;5078590;28;20473;-72
2023/08/06 00:29:15;;;;;;;5.10;2.47;;;512.60;2380.80;;;;;;5080670;28;20058;-73
2023/08/06 00:31:40;;;;;;;4.00;2.83;;;512.40;2380.80;;;;;;5084801;28;20185;-72
2023/08/06 00:34:06;;;;;;;5.13;2.70;;;512.40;2380.80;;;;;;5064266;28;20043;-73
2023/08/06 00:36:31;;;;;;;5.25;3.10;;;512.30;2380.80;;;;;;5078289;28;20064;-72
2023/08/06 00:38:57;;;;;;;4.90;3.05;;;512.30;2380.80;;;;;;5095486;28;20500;-72
2023/08/06 00:41:23;;;;;;;6.05;3.55;;;512.30;2355.20;;;;;;5081523;28;20086;-71
2023/08/06 00:43:48;;;;;;;7.45;3.60;;;512.20;2380.80;;;;;;5083412;28;20033;-73
2023/08/06 00:46:15;;;;;;;4.88;3.15;;;;;;;;;;5088805;28;20032;-72
2023/08/06 00:48:41;;;;;;;4.80;3.58;;;512.20;2380.80;;;;;;5084503;28;20030;-72
2023/08/06 00:51:10;;;;;;;5.82;3.72;;;512.10;2380.80;;;;;;5086350;28;20044;-72
2023/08/06 00:53:37;;;;;;;9.20;4.20;;;512.10;2380.80;;;;;;5082993;28;20044;-73
2023/08/06 00:56:03;;;;;;;7.30;3.92;;;512.00;2380.80;;;;;;5067511;28;20069;-72
2023/08/06 00:58:29;;;;;;;4.32;2.65;;;512.10;2380.80;;;;;;5087165;28;20020;-72
2023/08/06 01:00:55;;;;;;;6.53;3.47;;;512.30;2380.80;;;;;;5060031;28;20029;-72
2023/08/06 01:03:20;;;;;;;6.63;3.05;;;512.40;2380.80;;;;;;5077703;28;20032;-72
2023/08/06 01:05:46;;;;;;;6.05;3.63;;;512.70;2380.80;;;;;;5080535;28;20024;-72
2023/08/06 01:08:22;;;;;;;5.30;3.03;;;512.80;2380.80;;;;;;5080092;28;20027;-72
2023/08/06 01:11:05;;;;;;;4.28;3.05;;;537.60;2406.40;;;;;;5065715;28;20445;-73
2023/08/06 01:13:43;;;;;;;6.63;3.42;;;537.60;2406.40;;;;;;5073082;28;20068;-72
2023/08/06 01:16:10;;;;;;;5.32;2.53;;;537.60;2406.40;;;;;;5061336;28;20032;-73
2023/08/06 01:18:37;;;;;;;6.13;2.78;;;537.70;2252.80;;;;;;5075877;28;20433;-73
2023/08/06 01:21:03;;;;;;;4.85;3.10;;;537.70;2329.60;;;;;;5078319;28;20042;-73
2023/08/06 01:23:29;;;;;;;5.53;3.13;;;537.80;2124.80;;;;;;5081344;28;20033;-73
2023/08/06 01:26:18;;;;;;;6.65;3.45;;;537.60;2278.40;;;;;;5061426;28;20029;-72
2023/08/06 01:29:06;;;;;;;4.75;3.17;;;512.60;2380.80;;;;;;5076420;28;20039;-72
2023/08/06 01:31:35;;;;;;;5.28;2.90;;;512.50;2380.80;;;;;;5079425;28;20068;-72
2023/08/06 01:34:02;;;;;;;4.90;3.20;;;512.60;2380.80;;;;;;5077425;28;20016;-72
2023/08/06 01:36:28;;;;;;;8.30;3.08;;;512.70;2380.80;;;;;;5076742;28;20032;-73
2023/08/06 01:38:54;;;;;;;6.30;3.22;;;512.90;2380.80;;;;;;5087844;28;20024;-73
2023/08/06 01:41:20;;;;;;;6.57;3.50;;;512.90;2380.80;;;;;;5085373;28;20048;-73
2023/08/06 01:43:46;;;;;;;4.93;3.40;;;537.60;2406.40;;;;;;5076102;28;20506;-73
2023/08/06 01:46:12;;;;;;;5.20;3.25;;;537.60;2406.40;;;;;;5083650;28;20047;-73
2023/08/06 01:48:37;;;;;;;5.82;3.47;;;537.60;2406.40;;;;;;5078728;28;20017;-73
2023/08/06 01:51:06;;;;;;;4.72;3.40;;;537.70;2406.40;;;;;;5086920;28;20046;-72
2023/08/06 01:53:33;;;;;;;4.93;3.38;;;537.70;2355.20;;;;;;5094952;28;20059;-73
2023/08/06 01:55:59;;;;;;;5.00;3.58;;;537.60;2176.00;;;;;;5088412;28;20508;-74
2023/08/06 01:58:25;;;;;;;9.48;3.53;;;512.90;2380.80;;;;;;5075702;28;20020;-79
2023/08/06 02:00:51;;;;;;;6.90;3.85;;;512.90;2380.80;;;;;;5074637;28;20016;-73
2023/08/06 02:03:16;;;;;;;15.05;4.45;;;537.60;2406.40;;;;;;5074290;28;20036;-73
2023/08/06 02:05:42;;;;;;;6.15;4.03;;;537.70;2329.60;;;;;;5056415;28;20039;-73
2023/08/06 02:08:08;;;;;;;5.00;3.30;;;537.70;2099.20;;;;;;5055728;28;20409;-74
2023/08/06 02:10:33;;;;;;;12.30;5.05;;;537.80;2201.60;;;;;;5074149;28;20473;-76
2023/08/06 02:12:59;;;;;;;6.97;4.45;;;537.80;2406.40;;;;;;5073988;28;20477;-74
2023/08/06 02:15:25;;;;;;;8.43;4.95;;;512.90;2227.20;;;;;;5073511;28;20017;-73
2023/08/06 02:17:51;;;;;;;7.30;5.78;;;512.90;2380.80;;;;;;5073913;28;20048;-73
2023/08/06 02:20:16;;;;;;;9.15;5.60;;;512.90;2380.80;;;;;;5074065;28;20100;-77
2023/08/06 02:22:42;;;;;;;9.63;5.55;;;512.70;2380.80;;;;;;5073865;28;20046;-76
2023/08/06 02:25:08;;;;;;;13.02;6.38;;;512.80;2380.80;;;;;;5073536;28;20024;-78
2023/08/06 02:27:34;;;;;;;8.60;6.40;;;512.90;2380.80;;;;;;5073780;28;20051;-74
2023/08/06 02:29:59;;;;;;;8.05;6.57;;;512.90;2380.80;;;;;;5073935;28;20466;-73
2023/08/06 02:32:25;;;;;;;9.85;6.68;;;537.70;2406.40;;;;;;5073667;28;20469;-73
2023/08/06 02:34:51;;;;;;;10.95;7.13;;;537.60;2304.00;;;;;;5073695;28;20381;-73
2023/08/06 02:37:17;;;;;;;11.98;7.72;;;512.90;2380.80;;;;;;5073673;28;20024;-77
2023/08/06 02:39:43;;;;;;;10.50;8.30;;;512.90;2380.80;;;;;;5073591;28;20023;-73
2023/08/06 02:42:09;;;;;;;10.43;8.70;;;512.70;2380.80;;;;;;5073190;28;20098;-74
2023/08/06 02:44:35;;;;;;;10.65;8.80;;;512.70;2380.80;;;;;;5073620;28;20047;-74
2023/08/06 02:47:01;;;;;;;11.57;9.32;;;512.70;2380.80;;;;;;5073419;28;20372;-76
2023/08/06 02:49:27;;;;;;;14.63;10.20;;;512.70;2380.80;;;;;;5073515;28;20111;-73
2023/08/06 02:51:53;;;;;;;13.25;10.55;;;512.60;2380.80;;;;;;5073282;28;20151;-73
2023/08/06 02:54:19;;;;;;;13.88;10.40;;;512.70;2380.80;;;;;;5073503;28;20374;-73
2023/08/06 02:56:46;;;;;;;13.45;9.60;;;512.50;2380.80;;;;;;5073418;28;20024;-77
2023/08/06 02:59:12;;;;;;;12.57;9.93;;;512.60;2380.80;;;;;;5073342;28;20078;-74
2023/08/06 03:01:38;;;;;;;14.93;9.23;;;512.50;2380.80;;;;;;5073276;28;20067;-73
2023/08/06 03:04:04;;;;;;;10.35;9.18;;;512.50;2380.80;;;;;;5088765;28;20016;-77
2023/08/06 03:06:30;;;;;;;15.52;10.30;;;512.40;2380.80;;;;;;5055409;28;20020;-74
2023/08/06 03:08:55;;;;;;;13.60;9.73;;;512.40;2380.80;;;;;;5088598;28;20103;-73
2023/08/06 03:11:21;;;;;;;12.45;10.05;;;512.40;2380.80;;;;;;5071558;28;20139;-74
2023/08/06 03:13:50;;;;;;;13.95;9.52;;;512.40;2380.80;;;;;;5088711;28;20017;-72
2023/08/06 03:16:15;;;;;;;12.68;10.23;;;512.60;2380.80;;;;;;5073107;28;20024;-74
2023/08/06 03:18:41;;;;;;;11.60;9.75;;;512.60;2380.80;;;;;;5073304;28;20025;-73
2023/08/06 03:21:07;;;;;;;11.40;9.75;;;512.60;2380.80;;;;;;5072856;28;20474;-74
2023/08/06 03:23:32;;;;;;;11.88;9.35;;;512.60;2380.80;;;;;;5073151;28;20024;-74
2023/08/06 03:26:02;;;;;;;11.18;8.63;;;512.70;2380.80;;;;;;5054881;28;20055;-74
2023/08/06 03:28:28;;;;;;;11.85;8.45;;;512.70;2380.80;;;;;;5055081;28;20025;-73
2023/08/06 03:31:01;;;;;;;8.73;7.55;;;512.90;2380.80;;;;;;5072923;28;20024;-76
2023/08/06 03:33:27;;;;;;;18.77;8.73;;;512.80;2380.80;;;;;;5054630;28;20189;-73
2023/08/06 03:35:53;;;;;;;10.73;8.07;;;512.70;2380.80;;;;;;5072677;28;20540;-72
2023/08/06 03:38:18;;;;;;;9.88;8.02;;;512.80;2380.80;;;;;;5072950;28;20035;-73
2023/08/06 03:40:45;;;;;;;8.75;6.82;;;512.90;2380.80;;;;;;5072621;28;20115;-73
2023/08/06 03:43:11;;;;;;;7.88;6.50;;;512.90;2380.80;;;;;;5055014;28;20169;-80
2023/08/06 03:45:36;;;;;;;15.27;7.20;;;512.90;2380.80;;;;;;5072983;28;20505;-74
2023/08/06 03:48:02;;;;;;;11.15;6.72;;;512.90;2380.80;;;;;;5072980;28;20109;-73
2023/08/06 03:50:28;;;;;;;8.63;6.57;;;537.60;2355.20;;;;;;5054889;28;20428;-73
2023/08/06 03:52:54;;;;;;;9.80;6.30;;;512.90;2201.60;;;;;;5072809;28;20052;-75
2023/08/06 03:55:19;;;;;;;7.80;6.35;;;512.90;2380.80;;;;;;5072686;28;20062;-73
2023/08/06 03:57:45;;;;;;;9.13;6.07;;;537.60;2124.80;;;;;;5072838;28;20074;-73
2023/08/06 04:00:12;;;;;;;10.10;7.78;;;537.60;2099.20;;;;;;5072541;28;20035;-74
2023/08/06 04:02:38;;;;;;;10.82;7.38;;;512.90;2380.80;;;;;;5072832;28;20043;-73
2023/08/06 04:05:04;;;;;;;10.07;7.93;;;512.90;2380.80;;;;;;5072393;28;20021;-73
2023/08/06 04:07:29;;;;;;;12.38;9.40;;;512.90;2380.80;;;;;;5072890;28;20070;-73
2023/08/06 04:09:58;;;;;;;13.80;9.93;;;512.80;2380.80;;;;;;5072372;28;20354;-73
2023/08/06 04:12:24;;;;;;;16.60;11.70;;;512.70;2380.80;;;;;;5072667;28;20036;-79
2023/08/06 04:14:51;;;;;;;12.95;10.63;;;512.70;2380.80;;;;;;5072543;28;20369;-75
2023/08/06 04:17:20;;;;;;;14.15;11.93;;;512.70;2380.80;;;;;;5072703;28;20025;-73
2023/08/06 04:19:47;;;;;;;18.02;12.77;;;512.70;2380.80;;;;;;5087934;28;20423;-72
2023/08/06 04:22:13;;;;;;;17.55;12.40;;;512.70;2380.80;;;;;;5072641;28;20078;-74
2023/08/06 04:24:39;;;;;;;17.90;13.75;;;512.70;2380.80;;;;;;5072444;28;20016;-75
2023/08/06 04:27:05;;;;;;;15.18;12.38;;;512.70;2380.80;;;;;;5072556;28;20563;-76
2023/08/06 04:29:30;;;;;;;18.48;13.00;;;512.60;2380.80;;;;;;5072296;28;20021;-75
2023/08/06 04:31:56;;;;;;;17.52;13.75;;;512.60;2380.80;;;;;;5054634;28;20500;-78
2023/08/06 04:34:22;;;;;;;17.80;13.15;;;512.50;2380.80;;;;;;5072450;28;20024;-74
2023/08/06 04:36:48;;;;;;;18.17;15.25;;;512.70;2380.80;;;;;;5072442;28;20504;-74
2023/08/06 04:39:13;;;;;;;17.83;13.80;;;512.90;2380.80;;;;;;5056434;28;20070;-75
2023/08/06 04:41:39;;;;;;;23.63;15.25;;;512.80;2380.80;;;;;;5075779;28;20452;-74
2023/08/06 04:44:05;;;;;;;17.92;14.70;;;512.90;2380.80;;;;;;5057887;28;20033;-73
2023/08/06 04:46:30;;;;;;;19.75;14.48;;;537.70;2406.40;;;;;;5076300;28;20032;-73
2023/08/06 04:48:56;;;;;;;17.63;14.68;;;537.70;2406.40;;;;;;5057909;28;20046;-74
2023/08/06 04:51:22;;;;;;;19.08;14.20;;;537.80;2406.40;;;;;;5076022;28;20486;-73
2023/08/06 04:53:48;;;;;;;21.35;16.13;;;537.80;2406.40;;;;;;5075345;28;20013;-74
2023/08/06 04:56:14;;;;;;;20.67;15.05;;;537.60;2406.40;;;;;;5075847;28;20481;-77
2023/08/06 04:58:39;;;;;;;20.80;16.40;;;537.60;2406.40;;;;;;5075580;28;20020;-74
2023/08/06 05:01:05;;;;;;;21.17;16.27;;;512.90;2380.80;;;;;;5078856;28;20502;-73
2023/08/06 05:03:30;;;;;;;20.33;15.98;;;512.90;2380.80;;;;;;5078128;28;20020;-73
2023/08/06 05:05:56;;;;;;;23.20;16.38;;;512.90;2380.80;;;;;;5081049;28;20063;-77
2023/08/06 05:08:22;;;;;;;20.23;15.00;;;512.90;2380.80;;;;;;5079191;28;20477;-73
2023/08/06 05:10:47;;;;;;;22.83;15.57;;;537.60;2406.40;;;;;;5062617;28;20037;-72
2023/08/06 05:13:13;;;;;;;18.88;15.27;;;537.80;2406.40;;;;;;5078635;28;20040;-73
2023/08/06 05:15:42;;;;;;;22.48;15.55;;;537.80;2406.40;;;;;;5076496;28;20050;-73
2023/08/06 05:18:08;;;;;;;19.30;15.30;;;537.80;2406.40;;;;;;5075893;28;20024;-73
2023/08/06 05:20:37;;;;;;;21.90;15.57;;;537.80;2406.40;;;;;;5077720;28;20027;-74
2023/08/06 05:23:03;;;;;;;21.75;15.35;;;537.90;2406.40;;;;;;5080795;28;20505;-73
2023/08/06 05:25:28;;;;;;;21.08;16.70;;;538.00;2406.40;;;;;;5085733;28;20128;-74
2023/08/06 05:27:54;;;;;;;21.90;16.17;;;538.00;2406.40;;;;;;5084439;28;20482;-73
2023/08/06 05:30:20;;;;;;;22.33;16.48;;;538.00;2406.40;;;;;;5079416;28;20390;-73
2023/08/06 05:32:46;;;;;;;22.27;16.88;;;538.00;2329.60;;;;;;5056938;28;20036;-74
2023/08/06 05:35:11;;;;;;;27.73;17.35;;;538.00;2406.40;;;;;;5076216;28;20024;-74
2023/08/06 05:37:37;;;;;;;20.40;16.85;;;538.30;2406.40;;;;;;5079735;28;20384;-72
2023/08/06 05:40:03;;;;;;;22.70;16.73;;;538.20;2406.40;;;;;;5082762;28;20020;-76
2023/08/06 05:42:29;;;;;;;22.65;16.42;;;538.30;2124.80;;;;;;5068511;28;20040;-73
2023/08/06 05:44:55;;;;;;;23.48;18.20;;;538.20;2406.40;;;;;;5081036;28;20081;-77
2023/08/06 05:47:21;;;;;;;24.52;18.40;;;538.10;2406.40;;;;;;5084478;28;20028;-75
2023/08/06 05:49:46;;;;;;;21.52;17.35;;;538.20;2406.40;;;;;;5058985;28;20056;-74
2023/08/06 05:52:12;;;;;;;22.98;17.05;;;538.10;2406.40;;;;;;5084344;28;20435;-72
2023/08/06 05:54:38;;;;;;;21.55;16.77;;;538.00;2406.40;;;;;;5060625;28;20036;-75
2023/08/06 05:57:04;;;;;;;27.33;18.45;;;538.00;2406.40;;;;;;5083018;28;20374;-74
2023/08/06 05:59:30;;;;;;;25.33;17.27;;;537.80;2406.40;;;;;;5076933;28;20043;-75
2023/08/06 06:01:55;;;;;;;24.75;19.05;;;537.90;2406.40;;;;;;5077917;28;20373;-74
2023/08/06 06:04:21;;;;;;;26.60;18.63;;;537.90;2406.40;;;;;;5083637;28;20035;-75
2023/08/06 06:06:47;;;;;;;24.92;18.52;;;538.00;2406.40;;;;;;5058917;28;20025;-76
2023/08/06 06:09:13;;;;;;;24.67;19.55;;;538.10;2406.40;;;;;;5061332;28;20390;-74
2023/08/06 06:11:39;;;;;;;29.38;21.05;;;538.10;2406.40;;;;;;5081734;28;20040;-73
2023/08/06 06:14:04;;;;;;;24.67;19.70;;;538.10;2406.40;;;;;;5076949;28;20469;-76
2023/08/06 06:16:30;;;;;;;26.00;19.13;;;538.10;2406.40;;;;;;5082034;28;20028;-72
2023/08/06 06:18:57;;;;;;;23.52;18.48;;;538.10;2406.40;;;;;;5057491;28;20028;-74
2023/08/06 06:21:23;;;;;;;22.40;17.30;;;538.00;2406.40;;;;;;5068877;28;20095;-74
2023/08/06 06:23:51;;;;;;;23.08;17.40;;;538.30;2406.40;;;;;;5085320;28;20028;-75
2023/08/06 06:26:17;;;;;;;20.08;15.70;;;538.30;2406.40;;;;;;5077604;28;20020;-76
2023/08/06 06:28:43;;;;;;;16.70;14.18;;;538.10;2406.40;;;;;;5074935;28;20036;-73
2023/08/06 06:31:09;;;;;;;18.35;15.27;;;538.20;2406.40;;;;;;5056794;28;20078;-74
2023/08/06 06:33:35;;;;;;;20.80;17.10;;;538.10;2406.40;;;;;;5074310;28;20107;-72
2023/08/06 06:36:03;;;;;;;20.23;14.85;;;538.00;2406.40;;;;;;5084028;28;20108;-73
2023/08/06 06:38:29;;;;;;;16.88;13.07;;;537.90;2406.40;;;;;;5060446;28;20044;-73
2023/08/06 06:40:57;;;;;;;17.00;14.32;;;538.00;2406.40;;;;;;5077912;28;20093;-75
2023/08/06 06:43:24;;;;;;;16.80;12.48;;;538.00;2406.40;;;;;;5079355;28;20043;-73
2023/08/06 06:45:59;;;;;;;17.67;13.60;;;538.10;2406.40;;;;;;5062242;28;20029;-73
2023/08/06 06:48:29;;;;;;;16.77;12.90;;;538.30;2406.40;;;;;;5085069;28;20028;-74
2023/08/06 06:50:55;;;;;;;16.63;14.10;;;538.10;2406.40;;;;;;5076420;28;20489;-74
2023/08/06 06:53:26;;;;;;;15.80;13.25;;;538.30;2406.40;;;;;;5080872;28;20388;-75
2023/08/06 06:55:53;;;;;;;19.02;12.55;;;538.30;2406.40;;;;;;5057319;28;20032;-74
2023/08/06 06:58:19;;;;;;;18.92;13.93;;;563.20;2432.00;;;;;;5079168;28;20073;-75
2023/08/06 07:00:46;;;;;;;14.50;12.32;;;538.50;2406.40;;;;;;5073303;28;20024;-75
2023/08/06 07:03:11;;;;;;;17.92;12.73;;;563.50;2432.00;;;;;;5059498;28;20060;-76
2023/08/06 07:05:37;;;;;;;17.27;12.68;;;563.80;2432.00;;;;;;5059097;28;20060;-75
2023/08/06 07:08:03;;;;;;;16.75;12.52;;;563.70;2099.20;;;;;;5077464;28;20059;-75
2023/08/06 07:50:06;;;;;;;12.20;11.00;;;589.40;2432.00;;;;;;5099025;27;20728;-75
2023/08/06 07:52:32;;;;;;;14.55;11.50;;;614.80;2432.00;;;;;;5069750;28;20033;-73
2023/08/06 07:54:58;;;;;;;14.63;11.00;;;615.00;2432.00;;;;;;5079867;28;20108;-76
2023/08/06 07:57:24;;;;;;;13.55;11.13;;;615.10;2432.00;;;;;;5079733;28;20492;-75
2023/08/06 07:59:50;;;;;;;12.65;11.35;;;614.80;2432.00;;;;;;5088734;28;20122;-73
2023/08/06 08:02:16;;;;;;;15.15;11.50;;;614.60;2432.00;;;;;;5061477;28;20026;-73
2023/08/06 08:04:41;;;;;;;12.73;10.27;;;614.50;2432.00;;;;;;5084985;28;20094;-73
2023/08/06 08:07:07;;;;;;;11.43;9.75;;;614.80;2432.00;;;;;;5076962;28;20051;-73
2023/08/06 08:09:35;;;;;;;12.63;11.05;;;614.60;2432.00;;;;;;5085658;28;20023;-74
2023/08/06 08:12:02;;;;;;;15.65;10.95;;;614.60;2432.00;;;;;;5061887;28;20059;-71
2023/08/06 08:14:28;;;;;;;14.75;11.68;;;614.50;2432.00;;;;;;5087730;28;20025;-72
2023/08/06 08:16:54;;;;;;;13.55;10.50;;;614.40;2432.00;;;;;;5084672;28;20023;-73
2023/08/06 08:19:21;;;;;;;12.95;10.50;;;614.40;2432.00;;;;;;5089573;28;20044;-72
2023/08/06 08:21:46;;;;;;;23.73;10.77;;;614.40;2432.00;;;;;;5088343;28;20028;-73
2023/08/06 08:24:12;;;;;;;10.38;9.13;;;614.40;2432.00;;;;;;5088938;28;20032;-74
2023/08/06 08:26:38;;;;;;;10.77;8.88;;;589.60;2432.00;;;;;;5088662;28;20027;-71
2023/08/06 08:29:03;;;;;;;12.20;9.20;;;589.60;2432.00;;;;;;5087692;28;20488;-71
2023/08/06 08:31:29;;;;;;;11.77;9.30;;;589.50;2432.00;;;;;;5088863;28;20032;-72
2023/08/06 08:33:55;;;;;;;15.07;10.93;;;589.50;2432.00;;;;;;5104028;28;20041;-73
2023/08/06 08:36:21;;;;;;;12.98;9.80;;;589.40;2432.00;;;;;;5088961;28;20028;-74
2023/08/06 08:38:47;;;;;;;13.95;9.20;;;589.20;2432.00;;;;;;5070777;28;20058;-73
2023/08/06 08:41:12;;;;;;;9.35;7.47;;;589.00;2432.00;;;;;;5089577;28;20020;-74
2023/08/06 08:43:40;;;;;;;13.20;8.23;;;589.00;2432.00;;;;;;5088575;28;20035;-74
2023/08/06 08:46:08;;;;;;;12.15;8.70;;;588.90;2432.00;;;;;;5088654;28;20599;-73
2023/08/06 08:48:33;;;;;;;13.38;7.30;;;589.10;2432.00;;;;;;5088370;28;20075;-73
2023/08/06 08:51:00;;;;;;;13.52;7.30;;;589.00;2432.00;;;;;;5075389;28;20063;-73
2023/08/06 08:53:27;;;;;;;9.85;6.72;;;589.10;2432.00;;;;;;5057307;28;20024;-72
2023/08/06 08:55:54;;;;;;;6.13;5.18;;;589.20;2432.00;;;;;;5075094;28;20017;-74
2023/08/06 08:58:20;;;;;;;5.13;4.43;;;589.00;2432.00;;;;;;5074309;28;20029;-76
2023/08/06 09:00:48;;;;;;;6.53;4.03;;;589.20;2432.00;;;;;;5074735;28;20032;-70
2023/08/06 09:03:14;;;;;;;5.60;4.40;;;589.30;2432.00;;;;;;5075210;28;20017;-73
2023/08/06 09:05:44;;;;;;;12.85;4.25;;;589.30;2432.00;;;;;;5074890;28;20060;-73
2023/08/06 09:08:13;;;;;;;6.60;3.42;;;589.20;2432.00;;;;;;5074796;28;20101;-70
2023/08/06 09:10:42;;;;;;;4.53;3.20;;;589.10;2432.00;;;;;;5075065;28;20343;-73
2023/08/06 09:13:08;;;;;;;6.03;3.13;;;589.20;2432.00;;;;;;5069939;28;20031;-74
2023/08/06 09:15:34;;;;;;;4.05;3.05;;;589.20;2432.00;;;;;;5074439;28;20092;-72
2023/08/06 09:18:08;;;;;;;7.43;4.38;;;589.20;2432.00;;;;;;5074337;28;20043;-72
2023/08/06 09:20:34;;;;;;;7.30;4.85;;;589.40;2432.00;;;;;;5056373;28;20436;-72
2023/08/06 09:23:08;;;;;;;7.75;3.67;;;614.50;2432.00;;;;;;5074242;28;20021;-71
2023/08/06 09:25:35;;;;;;;4.25;2.35;;;640.00;2432.00;;;;;;5070640;28;20439;-69
2023/08/06 09:28:02;;;;;;;4.05;2.45;;;640.30;2432.00;;;;;;5074615;28;20023;-73
2023/08/06 09:30:33;;;;;;;6.03;2.58;;;640.90;2432.00;;;;;;5074529;28;20027;-71
2023/08/06 09:32:59;;;;;;;3.83;2.28;;;665.70;2432.00;;;;;;5074438;28;20522;-70
2023/08/06 09:35:27;;;;;;;7.18;2.28;;;666.10;2432.00;;;;;;5074275;28;20025;-71
2023/08/06 09:37:53;;;;;;;3.58;2.35;;;666.50;2432.00;;;;;;5069048;28;20037;-70
2023/08/06 09:40:38;;;;;;;3.85;2.00;;;666.00;2432.00;;;;;;5055143;28;20120;-71
2023/08/06 09:43:05;;;;;;;4.43;2.33;;;665.60;2432.00;;;;;;5074295;28;20111;-72
2023/08/06 09:45:34;;;;;;;3.83;1.85;;;665.70;2432.00;;;;;;5070035;28;20052;-72
2023/08/06 09:48:12;;;;;;;2.58;1.50;;;666.30;2432.00;;;;;;5073988;28;20024;-75
2023/08/06 09:50:39;;;;;;;2.78;1.60;;;666.10;2432.00;;;;;;5069002;28;20105;-70
2023/08/06 09:53:06;;;;;;;2.75;1.60;;;691.20;2432.00;;;;;;5073730;28;20035;-73
2023/08/06 09:55:33;;;;;;;2.10;1.30;;;691.20;2432.00;;;;;;5073606;28;20020;-73
2023/08/06 09:57:59;;;;;;;2.20;1.40;;;666.20;2432.00;;;;;;5074396;28;20032;-73
2023/08/06 10:00:25;;;;;;;2.80;1.58;;;665.70;2432.00;;;;;;5055183;28;20025;-71
2023/08/06 10:02:55;;;;;;;2.33;1.52;;;665.60;2432.00;;;;;;5054791;28;20370;-72
2023/08/06 10:05:22;;;;;;;2.67;1.98;;;640.90;2432.00;;;;;;5072435;28;20016;-70
2023/08/06 10:07:50;;;;;;;4.43;2.13;;;666.40;2432.00;;;;;;5073682;28;20023;-70
2023/08/06 10:10:16;;;;;;;2.65;1.60;;;666.00;2432.00;;;;;;5056463;28;20056;-71
2023/08/06 10:12:49;;;;;;;2.78;1.60;;;665.70;2432.00;;;;;;5073103;28;20078;-73
2023/08/06 10:15:21;;;;;;;4.25;1.40;;;640.90;2432.00;;;;;;5073224;28;20020;-71
2023/08/06 10:17:49;;;;;;;2.40;1.48;;;640.50;2432.00;;;;;;5073371;28;20032;-70
2023/08/06 10:20:14;;;;;;;2.05;1.20;;;665.60;2432.00;;;;;;5073368;28;20028;-71
2023/08/06 10:22:45;;;;;;;1.58;1.20;;;666.50;2432.00;;;;;;5073776;28;20028;-72
2023/08/06 10:25:10;;;;;;;1.73;1.38;;;691.50;2432.00;;;;;;5055503;28;20081;-75
2023/08/06 10:27:54;;;;;;;2.08;1.35;;;691.90;2432.00;;;;;;5072217;28;20036;-71
2023/08/06 10:30:33;;;;;;;2.97;1.30;;;716.90;2432.00;;;;;;5070675;28;20012;-72
2023/08/06 10:33:00;;;;;;;3.97;1.45;;;717.20;2432.00;;;;;;5068696;28;20132;-71
2023/08/06 10:35:36;;;;;;;1.98;1.45;;;717.60;2432.00;;;;;;5072022;28;20110;-72
2023/08/06 10:38:06;;;;;;;1.92;1.63;;;742.40;2432.00;;;;;;5055287;28;20036;-72
2023/08/06 10:40:32;;;;;;;3.00;1.55;;;717.20;2432.00;;;;;;5071679;28;20023;-72
2023/08/06 10:43:03;;;;;;;2.22;1.30;;;717.10;2432.00;;;;;;5073057;28;20032;-71
2023/08/06 10:45:30;;;;;;;2.45;1.40;;;692.00;2432.00;;;;;;5073002;28;20021;-74
2023/08/06 10:47:57;;;;;;;1.42;1.05;;;691.70;2432.00;;;;;;5054403;28;20028;-71
2023/08/06 10:50:23;;;;;;;1.35;1.10;;;691.70;2432.00;;;;;;5072812;28;20029;-74
2023/08/06 10:52:49;;;;;;;4.85;1.45;;;691.80;2432.00;;;;;;5072930;28;20020;-73
2023/08/06 10:55:26;;;;;;;4.43;1.35;;;691.60;2432.00;;;;;;5072962;28;20478;-72
2023/08/06 10:57:53;;;;;;;2.63;1.30;;;691.50;2432.00;;;;;;5071177;28;20024;-71
2023/08/06 11:00:20;;;;;;;2.47;1.23;;;691.60;2432.00;;;;;;5072634;28;20032;-71
2023/08/06 11:02:48;;;;;;;1.80;1.10;;;691.50;2432.00;;;;;;5072411;28;20486;-71
2023/08/06 11:05:14;;;;;;;1.58;1.15;;;691.30;2432.00;;;;;;5070911;28;20024;-71
2023/08/06 11:07:40;;;;;;;1.27;1.08;;;691.20;2432.00;;;;;;5072934;28;20035;-74
2023/08/06 11:10:07;;;;;;;2.10;1.20;;;666.30;2432.00;;;;;;5072170;28;20111;-73
2023/08/06 11:12:34;;;;;;;1.48;1.10;;;666.50;2432.00;;;;;;5072241;28;20036;-72
2023/08/06 11:15:00;;;;;;;1.58;1.20;;;691.80;2432.00;;;;;;5072326;28;20146;-72
2023/08/06 11:17:31;;;;;;;1.10;0.95;;;716.90;2432.00;;;;;;5072186;28;20478;-72
2023/08/06 11:20:02;;;;;;;1.50;1.10;;;717.40;2432.00;;;;;;5072357;28;20499;-73
2023/08/06 11:22:28;;;;;;;2.13;1.20;;;717.70;2278.40;;;;;;5072507;28;20027;-73
2023/08/06 11:24:54;;;;;;;3.00;1.20;;;717.70;2252.80;;;;;;5072250;28;20028;-72
2023/08/06 11:27:20;;;;;;;2.08;1.10;;;742.40;2432.00;;;;;;5072781;28;20497;-72
2023/08/06 11:29:46;;;;;;;2.67;1.00;;;717.40;2227.20;;;;;;5072339;28;20032;-74
2023/08/06 11:32:12;;;;;;;2.58;1.13;;;717.70;2201.60;;;;;;5072268;28;20017;-78
2023/08/06 11:34:39;;;;;;;3.88;1.20;;;717.70;2278.40;;;;;;5072347;28;20036;-72
2023/08/06 11:37:05;;;;;;;4.50;1.20;;;742.40;2304.00;;;;;;5072264;28;20086;-72
2023/08/06 11:39:35;;;;;;;5.22;1.20;;;742.80;2227.20;;;;;;5070975;28;20042;-72
2023/08/06 11:42:04;;;;;;;1.55;1.20;;;742.90;2201.60;;;;;;5063847;28;20028;-73
2023/08/06 11:44:34;;;;;;;2.05;1.17;;;742.80;2304.00;;;;;;5072734;28;20456;-72
2023/08/06 11:47:02;;;;;;;1.90;1.20;;;742.90;2304.00;;;;;;5072128;28;20028;-72
2023/08/06 11:49:48;;;;;;;1.67;1.20;;;742.80;2099.20;;;;;;5053801;28;20106;-73
2023/08/06 11:52:22;;;;;;;;;;;742.40;2201.60;;;;;;5072508;28;20362;-76
2023/08/06 11:55:03;;;;;;;1.42;1.00;;;742.60;2201.60;;;;;;5072502;28;19948;-74
2023/08/06 11:57:34;;;;;;;1.73;1.10;;;742.90;2124.80;;;;;;5072138;28;20500;-72
2023/08/06 12:00:14;;;;;;;1.30;1.00;;;742.80;2201.60;;;;;;5072100;28;20033;-74
2023/08/06 12:02:41;;;;;;;3.05;1.42;;;717.70;2150.40;;;;;;5072198;28;20020;-75
2023/08/06 12:05:17;;;;;;;1.27;0.95;;;717.30;2252.80;;;;;;5072141;28;20024;-71
2023/08/06 12:07:51;;;;;;;1.92;1.20;;;717.00;2124.80;;;;;;5056277;28;20417;-74
2023/08/06 12:10:19;;;;;;;1.83;1.17;;;692.10;2304.00;;;;;;5072608;28;20052;-75
2023/08/06 12:12:45;;;;;;;1.85;1.02;;;692.00;2227.20;;;;;;5067616;28;20033;-73
2023/08/06 12:15:11;;;;;;;1.70;1.20;;;692.10;2252.80;;;;;;5067756;28;20020;-73
2023/08/06 12:17:38;;;;;;;1.23;0.90;;;717.40;2150.40;;;;;;5071560;28;20029;-73
2023/08/06 12:20:05;;;;;;;1.52;1.13;;;717.70;2099.20;;;;;;5071837;28;20485;-70
2023/08/06 12:22:34;;;;;;;1.13;0.98;;;717.50;2278.40;;;;;;5071603;28;20140;-73
2023/08/06 12:25:03;;;;;;;1.45;1.20;;;717.30;2227.20;;;;;;5072021;28;20098;-75
2023/08/06 12:27:29;;;;;;;1.67;1.20;;;717.20;2073.60;;;;;;5053233;28;20024;-74
2023/08/06 12:29:54;;;;;;;1.05;0.98;;;717.30;2150.40;;;;;;5055561;28;20028;-78
2023/08/06 12:32:20;;;;;;;3.00;1.10;;;692.10;2227.20;;;;;;5074723;28;20028;-72
2023/08/06 12:34:45;;;;;;;2.83;1.38;;;692.10;2406.40;;;;;;5075328;28;20033;-73
2023/08/06 12:37:11;;;;;;;1.02;0.80;;;717.00;2432.00;;;;;;5075562;28;20024;-75
2023/08/06 12:39:37;;;;;;;1.55;1.15;;;692.10;2406.40;;;;;;5068789;28;20044;-74
2023/08/06 12:42:05;;;;;;;1.15;1.00;;;691.80;2432.00;;;;;;5057348;28;20024;-73
2023/08/06 12:44:32;;;;;;;1.48;1.08;;;691.80;2380.80;;;;;;5073725;28;20032;-74
2023/08/06 12:46:58;;;;;;;1.48;1.15;;;691.60;2432.00;;;;;;5075183;28;20090;-76
2023/08/06 12:49:25;;;;;;;1.73;1.42;;;691.50;2432.00;;;;;;5074596;28;20048;-75